sensor_id;sensor_type;location;lat;lon;timestamp;P1;durP1;ratioP1;P2;durP2;ratioP2
32505;SDS011;18955;51.224;8.482;2024-02-26T00:01:00;1.33;;;0.95;;
32505;SDS011;18955;51.224;8.482;2024-02-26T00:03:27;2.03;;;1.00;;
32505;SDS011;18955;51.224;8.482;2024-02-26T00:05:53;1.83;;;0.90;;
32505;SDS011;18955;51.224;8.482;2024-02-26T00:08:21;2.67;;;1.00;;
32505;SDS011;18955;51.224;8.482;2024-02-26T00:13:14;1.73;;;1.08;;
32505;SDS011;18955;51.224;8.482;2024-02-26T00:15:40;2.17;;;0.90;;
32505;SDS011;18955;51.224;8.482;2024-02-26T00:18:06;1.95;;;0.85;;
32505;SDS011;18955;51.224;8.482;2024-02-26T00:20:33;1.52;;;1.00;;
32505;SDS011;18955;51.224;8.482;2024-02-26T00:22:59;1.00;;;0.60;;
32505;SDS011;18955;51.224;8.482;2024-02-26T00:25:25;0.85;;;0.80;;
32505;SDS011;18955;51.224;8.482;2024-02-26T00:27:51;3.03;;;1.55;;
32505;SDS011;18955;51.224;8.482;2024-02-26T00:30:17;1.23;;;0.90;;
32505;SDS011;18955;51.224;8.482;2024-02-26T00:32:44;1.20;;;0.90;;
32505;SDS011;18955;51.224;8.482;2024-02-26T00:35:10;1.98;;;1.08;;
32505;SDS011;18955;51.224;8.482;2024-02-26T00:37:36;0.90;;;0.68;;
32505;SDS011;18955;51.224;8.482;2024-02-26T00:40:02;2.20;;;1.00;;
32505;SDS011;18955;51.224;8.482;2024-02-26T00:42:29;2.15;;;1.38;;
32505;SDS011;18955;51.224;8.482;2024-02-26T00:44:55;2.10;;;1.05;;
32505;SDS011;18955;51.224;8.482;2024-02-26T00:47:21;2.08;;;0.88;;
32505;SDS011;18955;51.224;8.482;2024-02-26T00:49:47;0.82;;;0.80;;
32505;SDS011;18955;51.224;8.482;2024-02-26T00:52:13;1.55;;;1.00;;
32505;SDS011;18955;51.224;8.482;2024-02-26T00:54:40;1.35;;;0.88;;
32505;SDS011;18955;51.224;8.482;2024-02-26T00:57:07;3.00;;;1.20;;
32505;SDS011;18955;51.224;8.482;2024-02-26T00:59:33;1.20;;;1.08;;
32505;SDS011;18955;51.224;8.482;2024-02-26T01:01:59;1.50;;;1.05;;
32505;SDS011;18955;51.224;8.482;2024-02-26T01:04:27;0.85;;;0.85;;
32505;SDS011;18955;51.224;8.482;2024-02-26T01:06:53;1.20;;;1.10;;
32505;SDS011;18955;51.224;8.482;2024-02-26T01:09:20;1.77;;;1.00;;
32505;SDS011;18955;51.224;8.482;2024-02-26T01:11:46;1.10;;;0.75;;
32505;SDS011;18955;51.224;8.482;2024-02-26T01:14:12;1.65;;;0.90;;
32505;SDS011;18955;51.224;8.482;2024-02-26T01:16:38;3.28;;;1.05;;
32505;SDS011;18955;51.224;8.482;2024-02-26T01:19:05;0.95;;;0.80;;
32505;SDS011;18955;51.224;8.482;2024-02-26T01:21:31;1.00;;;0.90;;
32505;SDS011;18955;51.224;8.482;2024-02-26T01:23:57;1.20;;;0.90;;
32505;SDS011;18955;51.224;8.482;2024-02-26T01:26:24;1.45;;;0.63;;
32505;SDS011;18955;51.224;8.482;2024-02-26T01:28:50;1.30;;;0.77;;
32505;SDS011;18955;51.224;8.482;2024-02-26T01:31:16;1.95;;;0.80;;
32505;SDS011;18955;51.224;8.482;2024-02-26T01:33:42;1.17;;;1.08;;
32505;SDS011;18955;51.224;8.482;2024-02-26T01:36:08;1.30;;;0.55;;
32505;SDS011;18955;51.224;8.482;2024-02-26T01:38:35;1.02;;;0.85;;
32505;SDS011;18955;51.224;8.482;2024-02-26T01:41:01;0.80;;;0.80;;
32505;SDS011;18955;51.224;8.482;2024-02-26T01:43:27;3.50;;;1.10;;
32505;SDS011;18955;51.224;8.482;2024-02-26T01:45:54;0.80;;;0.77;;
32505;SDS011;18955;51.224;8.482;2024-02-26T01:50:46;1.77;;;1.20;;
32505;SDS011;18955;51.224;8.482;2024-02-26T01:53:13;1.40;;;0.90;;
32505;SDS011;18955;51.224;8.482;2024-02-26T01:55:39;1.45;;;0.82;;
32505;SDS011;18955;51.224;8.482;2024-02-26T02:00:32;1.17;;;1.08;;
32505;SDS011;18955;51.224;8.482;2024-02-26T02:02:59;0.85;;;0.82;;
32505;SDS011;18955;51.224;8.482;2024-02-26T02:05:26;2.75;;;1.00;;
32505;SDS011;18955;51.224;8.482;2024-02-26T02:07:52;1.48;;;1.00;;
32505;SDS011;18955;51.224;8.482;2024-02-26T02:10:19;1.42;;;1.30;;
32505;SDS011;18955;51.224;8.482;2024-02-26T02:12:51;3.15;;;0.90;;
32505;SDS011;18955;51.224;8.482;2024-02-26T02:15:17;1.58;;;1.10;;
32505;SDS011;18955;51.224;8.482;2024-02-26T02:17:43;0.90;;;0.80;;
32505;SDS011;18955;51.224;8.482;2024-02-26T02:20:14;0.98;;;0.60;;
32505;SDS011;18955;51.224;8.482;2024-02-26T02:22:42;0.90;;;0.85;;
32505;SDS011;18955;51.224;8.482;2024-02-26T02:25:10;1.80;;;1.02;;
32505;SDS011;18955;51.224;8.482;2024-02-26T02:27:36;1.63;;;0.88;;
32505;SDS011;18955;51.224;8.482;2024-02-26T02:30:02;1.45;;;1.00;;
32505;SDS011;18955;51.224;8.482;2024-02-26T02:32:29;1.65;;;1.10;;
32505;SDS011;18955;51.224;8.482;2024-02-26T02:34:56;1.65;;;0.93;;
32505;SDS011;18955;51.224;8.482;2024-02-26T02:37:23;1.95;;;1.10;;
32505;SDS011;18955;51.224;8.482;2024-02-26T02:39:49;1.45;;;0.98;;
32505;SDS011;18955;51.224;8.482;2024-02-26T02:42:15;1.17;;;0.70;;
32505;SDS011;18955;51.224;8.482;2024-02-26T02:44:41;1.55;;;1.00;;
32505;SDS011;18955;51.224;8.482;2024-02-26T02:47:07;4.80;;;1.27;;
32505;SDS011;18955;51.224;8.482;2024-02-26T02:49:34;0.70;;;0.70;;
32505;SDS011;18955;51.224;8.482;2024-02-26T02:52:00;1.40;;;0.80;;
32505;SDS011;18955;51.224;8.482;2024-02-26T02:54:26;2.95;;;1.20;;
32505;SDS011;18955;51.224;8.482;2024-02-26T02:56:52;0.60;;;0.60;;
32505;SDS011;18955;51.224;8.482;2024-02-26T02:59:19;1.02;;;0.80;;
32505;SDS011;18955;51.224;8.482;2024-02-26T03:01:45;1.08;;;0.90;;
32505;SDS011;18955;51.224;8.482;2024-02-26T03:04:11;0.98;;;0.90;;
32505;SDS011;18955;51.224;8.482;2024-02-26T03:06:38;1.05;;;0.95;;
32505;SDS011;18955;51.224;8.482;2024-02-26T03:09:04;1.38;;;0.90;;
32505;SDS011;18955;51.224;8.482;2024-02-26T03:11:30;2.00;;;1.10;;
32505;SDS011;18955;51.224;8.482;2024-02-26T03:13:56;1.55;;;1.20;;
32505;SDS011;18955;51.224;8.482;2024-02-26T03:16:23;2.10;;;1.20;;
32505;SDS011;18955;51.224;8.482;2024-02-26T03:18:49;2.15;;;0.98;;
32505;SDS011;18955;51.224;8.482;2024-02-26T03:21:15;1.05;;;0.80;;
32505;SDS011;18955;51.224;8.482;2024-02-26T03:23:41;3.35;;;1.20;;
32505;SDS011;18955;51.224;8.482;2024-02-26T03:26:07;1.30;;;0.90;;
32505;SDS011;18955;51.224;8.482;2024-02-26T03:28:34;1.50;;;1.00;;
32505;SDS011;18955;51.224;8.482;2024-02-26T03:31:01;5.10;;;1.63;;
32505;SDS011;18955;51.224;8.482;2024-02-26T03:33:27;1.20;;;1.08;;
32505;SDS011;18955;51.224;8.482;2024-02-26T03:35:54;1.30;;;1.10;;
32505;SDS011;18955;51.224;8.482;2024-02-26T03:38:20;2.72;;;1.10;;
32505;SDS011;18955;51.224;8.482;2024-02-26T03:40:46;3.05;;;1.20;;
32505;SDS011;18955;51.224;8.482;2024-02-26T03:43:12;1.65;;;1.17;;
32505;SDS011;18955;51.224;8.482;2024-02-26T03:45:39;2.80;;;1.13;;
32505;SDS011;18955;51.224;8.482;2024-02-26T03:48:05;2.38;;;1.40;;
32505;SDS011;18955;51.224;8.482;2024-02-26T03:50:31;1.70;;;1.00;;
32505;SDS011;18955;51.224;8.482;2024-02-26T03:52:58;2.20;;;1.50;;
32505;SDS011;18955;51.224;8.482;2024-02-26T03:57:51;3.45;;;1.50;;
32505;SDS011;18955;51.224;8.482;2024-02-26T04:00:18;1.75;;;1.30;;
32505;SDS011;18955;51.224;8.482;2024-02-26T04:02:44;1.65;;;1.20;;
32505;SDS011;18955;51.224;8.482;2024-02-26T04:05:12;1.42;;;1.20;;
32505;SDS011;18955;51.224;8.482;2024-02-26T04:07:39;3.03;;;1.05;;
32505;SDS011;18955;51.224;8.482;2024-02-26T04:10:09;1.10;;;1.00;;
32505;SDS011;18955;51.224;8.482;2024-02-26T04:12:38;1.98;;;1.40;;
32505;SDS011;18955;51.224;8.482;2024-02-26T04:15:06;1.77;;;1.05;;
32505;SDS011;18955;51.224;8.482;2024-02-26T04:17:33;1.30;;;1.20;;
32505;SDS011;18955;51.224;8.482;2024-02-26T04:19:59;1.45;;;0.90;;
32505;SDS011;18955;51.224;8.482;2024-02-26T04:22:26;0.98;;;0.88;;
32505;SDS011;18955;51.224;8.482;2024-02-26T04:24:52;3.30;;;1.25;;
32505;SDS011;18955;51.224;8.482;2024-02-26T04:27:18;1.88;;;1.10;;
32505;SDS011;18955;51.224;8.482;2024-02-26T04:29:44;1.92;;;1.10;;
32505;SDS011;18955;51.224;8.482;2024-02-26T04:32:11;2.13;;;1.40;;
32505;SDS011;18955;51.224;8.482;2024-02-26T04:34:37;1.63;;;1.33;;
32505;SDS011;18955;51.224;8.482;2024-02-26T04:37:03;2.60;;;1.02;;
32505;SDS011;18955;51.224;8.482;2024-02-26T04:39:29;1.88;;;0.95;;
32505;SDS011;18955;51.224;8.482;2024-02-26T04:41:55;2.30;;;1.38;;
32505;SDS011;18955;51.224;8.482;2024-02-26T04:44:22;1.60;;;1.08;;
32505;SDS011;18955;51.224;8.482;2024-02-26T04:46:48;1.35;;;1.25;;
32505;SDS011;18955;51.224;8.482;2024-02-26T04:49:14;1.40;;;1.30;;
32505;SDS011;18955;51.224;8.482;2024-02-26T04:51:40;2.78;;;1.20;;
32505;SDS011;18955;51.224;8.482;2024-02-26T04:54:06;1.73;;;1.08;;
32505;SDS011;18955;51.224;8.482;2024-02-26T04:56:33;1.80;;;1.08;;
32505;SDS011;18955;51.224;8.482;2024-02-26T04:58:59;1.48;;;0.77;;
32505;SDS011;18955;51.224;8.482;2024-02-26T05:01:25;1.27;;;1.17;;
32505;SDS011;18955;51.224;8.482;2024-02-26T05:03:51;2.95;;;1.40;;
32505;SDS011;18955;51.224;8.482;2024-02-26T05:06:18;2.13;;;1.20;;
32505;SDS011;18955;51.224;8.482;2024-02-26T05:08:44;1.63;;;1.10;;
32505;SDS011;18955;51.224;8.482;2024-02-26T05:11:12;1.73;;;1.38;;
32505;SDS011;18955;51.224;8.482;2024-02-26T05:13:38;2.47;;;1.13;;
32505;SDS011;18955;51.224;8.482;2024-02-26T05:16:05;1.60;;;1.20;;
32505;SDS011;18955;51.224;8.482;2024-02-26T05:18:31;1.88;;;1.35;;
32505;SDS011;18955;51.224;8.482;2024-02-26T05:20:57;2.47;;;1.42;;
32505;SDS011;18955;51.224;8.482;2024-02-26T05:23:23;1.98;;;1.10;;
32505;SDS011;18955;51.224;8.482;2024-02-26T05:25:50;2.28;;;1.33;;
32505;SDS011;18955;51.224;8.482;2024-02-26T05:28:16;2.25;;;1.70;;
32505;SDS011;18955;51.224;8.482;2024-02-26T05:30:43;2.53;;;1.55;;
32505;SDS011;18955;51.224;8.482;2024-02-26T05:33:10;1.40;;;0.93;;
32505;SDS011;18955;51.224;8.482;2024-02-26T05:35:36;2.42;;;0.98;;
32505;SDS011;18955;51.224;8.482;2024-02-26T05:40:29;2.53;;;1.48;;
32505;SDS011;18955;51.224;8.482;2024-02-26T05:42:55;2.75;;;1.50;;
32505;SDS011;18955;51.224;8.482;2024-02-26T05:45:22;3.50;;;2.65;;
32505;SDS011;18955;51.224;8.482;2024-02-26T05:47:48;2.05;;;1.13;;
32505;SDS011;18955;51.224;8.482;2024-02-26T05:50:15;2.35;;;1.90;;
32505;SDS011;18955;51.224;8.482;2024-02-26T05:52:42;3.55;;;1.50;;
32505;SDS011;18955;51.224;8.482;2024-02-26T05:55:08;2.28;;;1.50;;
32505;SDS011;18955;51.224;8.482;2024-02-26T05:57:35;2.47;;;1.73;;
32505;SDS011;18955;51.224;8.482;2024-02-26T06:02:37;2.75;;;1.75;;
32505;SDS011;18955;51.224;8.482;2024-02-26T06:05:03;3.35;;;1.65;;
32505;SDS011;18955;51.224;8.482;2024-02-26T06:07:30;1.98;;;1.65;;
32505;SDS011;18955;51.224;8.482;2024-02-26T06:09:56;4.57;;;1.80;;
32505;SDS011;18955;51.224;8.482;2024-02-26T06:12:22;2.72;;;1.50;;
32505;SDS011;18955;51.224;8.482;2024-02-26T06:14:49;2.10;;;1.50;;
32505;SDS011;18955;51.224;8.482;2024-02-26T06:17:15;1.83;;;1.20;;
32505;SDS011;18955;51.224;8.482;2024-02-26T06:19:42;2.88;;;1.80;;
32505;SDS011;18955;51.224;8.482;2024-02-26T06:22:08;3.05;;;1.80;;
32505;SDS011;18955;51.224;8.482;2024-02-26T06:24:34;5.95;;;1.63;;
32505;SDS011;18955;51.224;8.482;2024-02-26T06:27:01;1.90;;;1.40;;
32505;SDS011;18955;51.224;8.482;2024-02-26T06:29:27;14.00;;;1.70;;
32505;SDS011;18955;51.224;8.482;2024-02-26T06:31:53;1.40;;;1.08;;
32505;SDS011;18955;51.224;8.482;2024-02-26T06:34:19;2.40;;;1.42;;
32505;SDS011;18955;51.224;8.482;2024-02-26T06:36:46;4.32;;;2.10;;
32505;SDS011;18955;51.224;8.482;2024-02-26T06:39:12;2.60;;;1.60;;
32505;SDS011;18955;51.224;8.482;2024-02-26T06:41:40;2.60;;;1.63;;
32505;SDS011;18955;51.224;8.482;2024-02-26T06:44:07;2.20;;;1.73;;
32505;SDS011;18955;51.224;8.482;2024-02-26T06:46:33;2.42;;;1.40;;
32505;SDS011;18955;51.224;8.482;2024-02-26T06:48:59;1.67;;;1.10;;
32505;SDS011;18955;51.224;8.482;2024-02-26T06:51:25;5.18;;;1.30;;
32505;SDS011;18955;51.224;8.482;2024-02-26T06:53:51;2.38;;;1.50;;
32505;SDS011;18955;51.224;8.482;2024-02-26T06:56:18;2.97;;;1.45;;
32505;SDS011;18955;51.224;8.482;2024-02-26T07:01:11;3.65;;;1.85;;
32505;SDS011;18955;51.224;8.482;2024-02-26T07:03:40;7.13;;;1.70;;
32505;SDS011;18955;51.224;8.482;2024-02-26T07:06:06;3.17;;;1.80;;
32505;SDS011;18955;51.224;8.482;2024-02-26T07:08:34;3.60;;;1.75;;
32505;SDS011;18955;51.224;8.482;2024-02-26T07:11:00;2.63;;;1.23;;
32505;SDS011;18955;51.224;8.482;2024-02-26T07:13:26;2.67;;;1.70;;
32505;SDS011;18955;51.224;8.482;2024-02-26T07:15:52;2.58;;;1.60;;
32505;SDS011;18955;51.224;8.482;2024-02-26T07:18:18;2.75;;;1.88;;
32505;SDS011;18955;51.224;8.482;2024-02-26T07:20:45;1.90;;;1.48;;
32505;SDS011;18955;51.224;8.482;2024-02-26T07:23:11;3.35;;;1.90;;
32505;SDS011;18955;51.224;8.482;2024-02-26T07:25:38;3.45;;;2.00;;
32505;SDS011;18955;51.224;8.482;2024-02-26T07:28:05;2.60;;;1.70;;
32505;SDS011;18955;51.224;8.482;2024-02-26T07:30:31;1.88;;;1.77;;
32505;SDS011;18955;51.224;8.482;2024-02-26T07:32:57;1.75;;;1.38;;
32505;SDS011;18955;51.224;8.482;2024-02-26T07:35:24;2.88;;;2.10;;
32505;SDS011;18955;51.224;8.482;2024-02-26T07:37:50;4.22;;;1.90;;
32505;SDS011;18955;51.224;8.482;2024-02-26T07:40:16;5.22;;;2.00;;
32505;SDS011;18955;51.224;8.482;2024-02-26T07:42:43;3.53;;;2.40;;
32505;SDS011;18955;51.224;8.482;2024-02-26T07:45:09;2.92;;;1.77;;
32505;SDS011;18955;51.224;8.482;2024-02-26T07:47:35;7.07;;;2.47;;
32505;SDS011;18955;51.224;8.482;2024-02-26T07:50:03;3.67;;;2.00;;
32505;SDS011;18955;51.224;8.482;2024-02-26T07:52:30;4.63;;;2.53;;
32505;SDS011;18955;51.224;8.482;2024-02-26T07:54:56;2.40;;;1.80;;
32505;SDS011;18955;51.224;8.482;2024-02-26T07:57:22;3.20;;;2.00;;
32505;SDS011;18955;51.224;8.482;2024-02-26T07:59:48;4.53;;;2.13;;
32505;SDS011;18955;51.224;8.482;2024-02-26T08:02:15;5.45;;;2.47;;
32505;SDS011;18955;51.224;8.482;2024-02-26T08:04:42;3.53;;;2.20;;
32505;SDS011;18955;51.224;8.482;2024-02-26T08:07:08;6.03;;;2.92;;
32505;SDS011;18955;51.224;8.482;2024-02-26T08:09:35;4.55;;;2.90;;
32505;SDS011;18955;51.224;8.482;2024-02-26T08:12:01;3.03;;;2.40;;
32505;SDS011;18955;51.224;8.482;2024-02-26T08:14:27;2.15;;;1.63;;
32505;SDS011;18955;51.224;8.482;2024-02-26T08:16:53;3.13;;;2.17;;
32505;SDS011;18955;51.224;8.482;2024-02-26T08:19:19;5.10;;;2.70;;
32505;SDS011;18955;51.224;8.482;2024-02-26T08:21:46;3.53;;;2.53;;
32505;SDS011;18955;51.224;8.482;2024-02-26T08:24:12;3.80;;;2.75;;
32505;SDS011;18955;51.224;8.482;2024-02-26T08:26:38;3.55;;;2.35;;
32505;SDS011;18955;51.224;8.482;2024-02-26T08:29:05;4.22;;;2.55;;
32505;SDS011;18955;51.224;8.482;2024-02-26T08:31:31;4.57;;;2.90;;
32505;SDS011;18955;51.224;8.482;2024-02-26T08:33:57;4.93;;;2.83;;
32505;SDS011;18955;51.224;8.482;2024-02-26T08:36:24;4.20;;;3.10;;
32505;SDS011;18955;51.224;8.482;2024-02-26T08:38:50;4.07;;;2.55;;
32505;SDS011;18955;51.224;8.482;2024-02-26T08:41:17;4.70;;;2.72;;
32505;SDS011;18955;51.224;8.482;2024-02-26T08:43:43;3.88;;;2.92;;
32505;SDS011;18955;51.224;8.482;2024-02-26T08:46:09;3.25;;;2.13;;
32505;SDS011;18955;51.224;8.482;2024-02-26T08:48:38;6.68;;;3.25;;
32505;SDS011;18955;51.224;8.482;2024-02-26T08:51:06;4.28;;;3.10;;
32505;SDS011;18955;51.224;8.482;2024-02-26T08:53:32;6.00;;;2.95;;
32505;SDS011;18955;51.224;8.482;2024-02-26T08:58:26;5.45;;;3.63;;
32505;SDS011;18955;51.224;8.482;2024-02-26T09:00:53;5.93;;;3.85;;
32505;SDS011;18955;51.224;8.482;2024-02-26T09:05:46;5.75;;;3.90;;
32505;SDS011;18955;51.224;8.482;2024-02-26T09:08:13;7.15;;;3.78;;
32505;SDS011;18955;51.224;8.482;2024-02-26T09:10:39;8.52;;;4.40;;
32505;SDS011;18955;51.224;8.482;2024-02-26T09:13:06;7.32;;;4.20;;
32505;SDS011;18955;51.224;8.482;2024-02-26T09:15:32;7.00;;;4.57;;
32505;SDS011;18955;51.224;8.482;2024-02-26T09:17:59;6.28;;;4.50;;
32505;SDS011;18955;51.224;8.482;2024-02-26T09:20:25;7.53;;;3.85;;
32505;SDS011;18955;51.224;8.482;2024-02-26T09:22:51;11.63;;;5.72;;
32505;SDS011;18955;51.224;8.482;2024-02-26T09:25:17;6.85;;;4.30;;
32505;SDS011;18955;51.224;8.482;2024-02-26T09:27:44;8.77;;;5.70;;
32505;SDS011;18955;51.224;8.482;2024-02-26T09:30:11;9.23;;;6.10;;
32505;SDS011;18955;51.224;8.482;2024-02-26T09:35:04;9.48;;;5.82;;
32505;SDS011;18955;51.224;8.482;2024-02-26T09:37:31;10.75;;;6.45;;
32505;SDS011;18955;51.224;8.482;2024-02-26T09:39:59;10.73;;;6.50;;
32505;SDS011;18955;51.224;8.482;2024-02-26T09:42:26;14.25;;;5.93;;
32505;SDS011;18955;51.224;8.482;2024-02-26T09:44:56;10.27;;;6.32;;
32505;SDS011;18955;51.224;8.482;2024-02-26T09:47:28;13.52;;;6.30;;
32505;SDS011;18955;51.224;8.482;2024-02-26T09:49:58;13.05;;;6.25;;
32505;SDS011;18955;51.224;8.482;2024-02-26T09:52:26;9.35;;;6.10;;
32505;SDS011;18955;51.224;8.482;2024-02-26T09:54:56;13.70;;;7.00;;
32505;SDS011;18955;51.224;8.482;2024-02-26T09:57:22;9.68;;;6.75;;
32505;SDS011;18955;51.224;8.482;2024-02-26T09:59:51;9.60;;;6.40;;
32505;SDS011;18955;51.224;8.482;2024-02-26T10:02:19;10.98;;;7.15;;
32505;SDS011;18955;51.224;8.482;2024-02-26T10:04:46;10.20;;;6.13;;
32505;SDS011;18955;51.224;8.482;2024-02-26T10:07:16;12.07;;;7.30;;
32505;SDS011;18955;51.224;8.482;2024-02-26T10:09:42;10.75;;;7.28;;
32505;SDS011;18955;51.224;8.482;2024-02-26T10:12:10;8.60;;;6.15;;
32505;SDS011;18955;51.224;8.482;2024-02-26T10:14:37;11.13;;;7.18;;
32505;SDS011;18955;51.224;8.482;2024-02-26T10:17:04;10.98;;;7.47;;
32505;SDS011;18955;51.224;8.482;2024-02-26T10:19:34;10.25;;;7.15;;
32505;SDS011;18955;51.224;8.482;2024-02-26T10:22:00;11.18;;;7.88;;
32505;SDS011;18955;51.224;8.482;2024-02-26T10:24:29;11.40;;;7.00;;
32505;SDS011;18955;51.224;8.482;2024-02-26T10:26:56;11.02;;;7.03;;
32505;SDS011;18955;51.224;8.482;2024-02-26T10:29:23;11.18;;;7.00;;
32505;SDS011;18955;51.224;8.482;2024-02-26T10:31:51;12.77;;;8.05;;
32505;SDS011;18955;51.224;8.482;2024-02-26T10:34:18;11.65;;;7.40;;
32505;SDS011;18955;51.224;8.482;2024-02-26T10:36:45;12.93;;;7.90;;
32505;SDS011;18955;51.224;8.482;2024-02-26T10:39:12;11.73;;;7.25;;
32505;SDS011;18955;51.224;8.482;2024-02-26T10:41:43;11.25;;;6.75;;
32505;SDS011;18955;51.224;8.482;2024-02-26T10:44:10;10.45;;;7.25;;
32505;SDS011;18955;51.224;8.482;2024-02-26T10:46:38;14.73;;;7.47;;
32505;SDS011;18955;51.224;8.482;2024-02-26T10:49:12;12.93;;;7.80;;
32505;SDS011;18955;51.224;8.482;2024-02-26T10:51:44;12.25;;;7.78;;
32505;SDS011;18955;51.224;8.482;2024-02-26T10:54:12;16.33;;;8.63;;
32505;SDS011;18955;51.224;8.482;2024-02-26T10:56:41;16.50;;;9.02;;
32505;SDS011;18955;51.224;8.482;2024-02-26T10:59:09;12.60;;;8.13;;
32505;SDS011;18955;51.224;8.482;2024-02-26T11:01:38;13.20;;;8.30;;
32505;SDS011;18955;51.224;8.482;2024-02-26T11:04:06;15.85;;;9.18;;
32505;SDS011;18955;51.224;8.482;2024-02-26T11:06:34;12.77;;;7.97;;
32505;SDS011;18955;51.224;8.482;2024-02-26T11:11:31;15.43;;;9.02;;
32505;SDS011;18955;51.224;8.482;2024-02-26T11:14:00;13.88;;;9.00;;
32505;SDS011;18955;51.224;8.482;2024-02-26T11:16:28;15.80;;;9.90;;
32505;SDS011;18955;51.224;8.482;2024-02-26T11:18:55;16.35;;;11.07;;
32505;SDS011;18955;51.224;8.482;2024-02-26T11:21:23;18.42;;;9.75;;
32505;SDS011;18955;51.224;8.482;2024-02-26T11:23:56;15.00;;;10.27;;
32505;SDS011;18955;51.224;8.482;2024-02-26T11:26:23;18.58;;;10.27;;
32505;SDS011;18955;51.224;8.482;2024-02-26T11:28:51;18.05;;;10.88;;
32505;SDS011;18955;51.224;8.482;2024-02-26T11:31:18;15.95;;;9.55;;
32505;SDS011;18955;51.224;8.482;2024-02-26T11:33:51;15.27;;;10.68;;
32505;SDS011;18955;51.224;8.482;2024-02-26T11:36:18;17.13;;;10.43;;
32505;SDS011;18955;51.224;8.482;2024-02-26T11:41:15;13.73;;;9.00;;
32505;SDS011;18955;51.224;8.482;2024-02-26T11:44:15;14.95;;;9.25;;
32505;SDS011;18955;51.224;8.482;2024-02-26T11:46:41;16.02;;;10.55;;
32505;SDS011;18955;51.224;8.482;2024-02-26T11:51:51;16.17;;;10.63;;
32505;SDS011;18955;51.224;8.482;2024-02-26T11:57:04;18.60;;;11.80;;
32505;SDS011;18955;51.224;8.482;2024-02-26T11:59:39;19.20;;;11.68;;
32505;SDS011;18955;51.224;8.482;2024-02-26T12:02:06;14.30;;;8.45;;
32505;SDS011;18955;51.224;8.482;2024-02-26T12:04:34;14.68;;;9.98;;
32505;SDS011;18955;51.224;8.482;2024-02-26T12:07:03;19.35;;;11.07;;
32505;SDS011;18955;51.224;8.482;2024-02-26T12:12:07;17.23;;;11.48;;
32505;SDS011;18955;51.224;8.482;2024-02-26T12:14:39;18.73;;;11.95;;
32505;SDS011;18955;51.224;8.482;2024-02-26T12:17:22;16.83;;;9.65;;
32505;SDS011;18955;51.224;8.482;2024-02-26T12:19:50;17.73;;;11.48;;
32505;SDS011;18955;51.224;8.482;2024-02-26T12:22:18;19.40;;;12.25;;
32505;SDS011;18955;51.224;8.482;2024-02-26T12:24:45;19.00;;;12.55;;
32505;SDS011;18955;51.224;8.482;2024-02-26T12:27:11;19.15;;;12.27;;
32505;SDS011;18955;51.224;8.482;2024-02-26T12:29:39;18.85;;;12.02;;
32505;SDS011;18955;51.224;8.482;2024-02-26T12:32:05;21.50;;;12.23;;
32505;SDS011;18955;51.224;8.482;2024-02-26T12:36:58;17.15;;;11.15;;
32505;SDS011;18955;51.224;8.482;2024-02-26T12:39:24;20.67;;;11.95;;
32505;SDS011;18955;51.224;8.482;2024-02-26T12:44:17;19.23;;;11.55;;
32505;SDS011;18955;51.224;8.482;2024-02-26T12:46:49;18.48;;;11.93;;
32505;SDS011;18955;51.224;8.482;2024-02-26T12:49:16;14.30;;;8.18;;
32505;SDS011;18955;51.224;8.482;2024-02-26T12:51:46;16.48;;;10.98;;
32505;SDS011;18955;51.224;8.482;2024-02-26T12:54:13;18.80;;;11.43;;
32505;SDS011;18955;51.224;8.482;2024-02-26T12:56:39;17.83;;;11.60;;
32505;SDS011;18955;51.224;8.482;2024-02-26T12:59:06;18.40;;;11.68;;
32505;SDS011;18955;51.224;8.482;2024-02-26T13:01:33;17.50;;;11.52;;
32505;SDS011;18955;51.224;8.482;2024-02-26T13:03:59;17.95;;;11.05;;
32505;SDS011;18955;51.224;8.482;2024-02-26T13:06:32;21.05;;;11.75;;
32505;SDS011;18955;51.224;8.482;2024-02-26T13:08:59;16.90;;;11.50;;
32505;SDS011;18955;51.224;8.482;2024-02-26T13:11:27;18.75;;;10.18;;
32505;SDS011;18955;51.224;8.482;2024-02-26T13:13:55;16.38;;;10.15;;
32505;SDS011;18955;51.224;8.482;2024-02-26T13:16:23;15.57;;;10.85;;
32505;SDS011;18955;51.224;8.482;2024-02-26T13:18:50;14.30;;;10.25;;
32505;SDS011;18955;51.224;8.482;2024-02-26T13:21:17;15.30;;;11.07;;
32505;SDS011;18955;51.224;8.482;2024-02-26T13:23:48;17.60;;;11.48;;
32505;SDS011;18955;51.224;8.482;2024-02-26T13:26:16;17.58;;;10.98;;
32505;SDS011;18955;51.224;8.482;2024-02-26T13:28:42;16.08;;;10.68;;
32505;SDS011;18955;51.224;8.482;2024-02-26T13:31:08;11.95;;;8.23;;
32505;SDS011;18955;51.224;8.482;2024-02-26T13:33:34;15.52;;;10.15;;
32505;SDS011;18955;51.224;8.482;2024-02-26T13:36:01;16.02;;;10.82;;
32505;SDS011;18955;51.224;8.482;2024-02-26T13:38:28;15.55;;;9.45;;
32505;SDS011;18955;51.224;8.482;2024-02-26T13:40:55;16.92;;;9.75;;
32505;SDS011;18955;51.224;8.482;2024-02-26T13:43:21;14.32;;;9.52;;
32505;SDS011;18955;51.224;8.482;2024-02-26T13:45:48;15.73;;;9.85;;
32505;SDS011;18955;51.224;8.482;2024-02-26T13:48:14;13.32;;;8.32;;
32505;SDS011;18955;51.224;8.482;2024-02-26T13:50:41;12.25;;;8.52;;
32505;SDS011;18955;51.224;8.482;2024-02-26T13:53:14;11.23;;;8.52;;
32505;SDS011;18955;51.224;8.482;2024-02-26T13:55:40;15.55;;;9.07;;
32505;SDS011;18955;51.224;8.482;2024-02-26T13:58:11;13.52;;;8.57;;
32505;SDS011;18955;51.224;8.482;2024-02-26T14:00:41;12.35;;;7.63;;
32505;SDS011;18955;51.224;8.482;2024-02-26T14:03:07;10.77;;;7.07;;
32505;SDS011;18955;51.224;8.482;2024-02-26T14:05:34;11.43;;;7.55;;
32505;SDS011;18955;51.224;8.482;2024-02-26T14:08:01;12.13;;;8.05;;
32505;SDS011;18955;51.224;8.482;2024-02-26T14:10:28;10.65;;;7.47;;
32505;SDS011;18955;51.224;8.482;2024-02-26T14:12:54;13.15;;;8.02;;
32505;SDS011;18955;51.224;8.482;2024-02-26T14:15:20;13.50;;;7.30;;
32505;SDS011;18955;51.224;8.482;2024-02-26T14:17:46;8.90;;;5.72;;
32505;SDS011;18955;51.224;8.482;2024-02-26T14:20:18;11.48;;;7.80;;
32505;SDS011;18955;51.224;8.482;2024-02-26T14:25:11;9.27;;;6.82;;
32505;SDS011;18955;51.224;8.482;2024-02-26T14:27:38;12.27;;;7.65;;
32505;SDS011;18955;51.224;8.482;2024-02-26T14:30:04;13.88;;;8.20;;
32505;SDS011;18955;51.224;8.482;2024-02-26T14:32:31;11.20;;;8.70;;
32505;SDS011;18955;51.224;8.482;2024-02-26T14:35:09;11.85;;;8.05;;
32505;SDS011;18955;51.224;8.482;2024-02-26T14:37:36;16.33;;;8.90;;
32505;SDS011;18955;51.224;8.482;2024-02-26T14:40:02;15.57;;;8.82;;
32505;SDS011;18955;51.224;8.482;2024-02-26T14:42:29;10.80;;;8.07;;
32505;SDS011;18955;51.224;8.482;2024-02-26T14:44:55;13.13;;;8.40;;
32505;SDS011;18955;51.224;8.482;2024-02-26T14:47:22;10.25;;;6.22;;
32505;SDS011;18955;51.224;8.482;2024-02-26T14:49:48;15.65;;;8.98;;
32505;SDS011;18955;51.224;8.482;2024-02-26T14:52:17;11.95;;;8.50;;
32505;SDS011;18955;51.224;8.482;2024-02-26T14:54:43;16.52;;;9.63;;
32505;SDS011;18955;51.224;8.482;2024-02-26T14:57:10;13.45;;;7.95;;
32505;SDS011;18955;51.224;8.482;2024-02-26T14:59:36;12.90;;;8.55;;
32505;SDS011;18955;51.224;8.482;2024-02-26T15:02:03;13.13;;;8.75;;
32505;SDS011;18955;51.224;8.482;2024-02-26T15:04:29;12.40;;;8.38;;
32505;SDS011;18955;51.224;8.482;2024-02-26T15:06:56;10.68;;;5.93;;
32505;SDS011;18955;51.224;8.482;2024-02-26T15:09:22;9.95;;;6.90;;
32505;SDS011;18955;51.224;8.482;2024-02-26T15:11:48;6.60;;;4.93;;
32505;SDS011;18955;51.224;8.482;2024-02-26T15:14:14;10.80;;;4.90;;
32505;SDS011;18955;51.224;8.482;2024-02-26T15:16:41;10.38;;;7.07;;
32505;SDS011;18955;51.224;8.482;2024-02-26T15:19:07;9.55;;;5.68;;
32505;SDS011;18955;51.224;8.482;2024-02-26T15:21:33;9.85;;;6.60;;
32505;SDS011;18955;51.224;8.482;2024-02-26T15:23:59;12.05;;;8.20;;